createdAt,value
2018-09-24T00:00:41.598Z,14.63
2018-09-24T00:03:10.591Z,12.67
2018-09-24T00:05:39.534Z,15.27
2018-09-24T00:08:08.454Z,11.73
2018-09-24T00:10:37.343Z,11.13
2018-09-24T00:13:06.289Z,14.07
2018-09-24T00:15:35.279Z,14.17
2018-09-24T00:18:04.267Z,17.80
2018-09-24T00:20:33.226Z,15.33
2018-09-24T00:23:02.163Z,13.47
2018-09-24T00:25:31.287Z,16.70
2018-09-24T00:28:00.220Z,11.30
2018-09-24T00:30:29.203Z,11.10
2018-09-24T00:32:58.275Z,9.90
2018-09-24T00:35:27.317Z,10.77
2018-09-24T00:37:56.282Z,16.17
2018-09-24T00:40:25.219Z,8.50
2018-09-24T00:42:54.315Z,13.17
2018-09-24T00:45:23.286Z,9.60
2018-09-24T00:47:52.284Z,10.57
2018-09-24T00:50:21.445Z,13.60
2018-09-24T00:52:50.585Z,9.90
2018-09-24T00:55:19.780Z,10.17
2018-09-24T00:57:49.378Z,14.33
2018-09-24T01:00:18.396Z,7.27
2018-09-24T01:02:47.440Z,8.23
2018-09-24T01:05:16.511Z,7.90
2018-09-24T01:07:45.603Z,8.43
2018-09-24T01:10:14.624Z,6.87
2018-09-24T01:12:43.541Z,8.47
2018-09-24T01:15:12.510Z,10.77
2018-09-24T01:17:41.577Z,10.93
2018-09-24T01:20:11.517Z,6.63
2018-09-24T01:22:40.537Z,7.57
2018-09-24T01:25:09.473Z,5.70
2018-09-24T01:27:38.520Z,6.03
2018-09-24T01:30:07.580Z,9.83
2018-09-24T01:32:36.624Z,6.20
2018-09-24T01:35:05.519Z,5.67
2018-09-24T01:37:34.461Z,4.97
2018-09-24T01:40:03.346Z,5.43
2018-09-24T01:42:32.374Z,4.40
2018-09-24T01:45:01.219Z,4.40
2018-09-24T01:47:30.215Z,6.03
2018-09-24T01:49:59.088Z,7.83
2018-09-24T01:52:28.119Z,11.93
2018-09-24T01:54:56.958Z,4.80
2018-09-24T01:57:25.923Z,6.40
2018-09-24T01:59:56.340Z,3.80
2018-09-24T02:02:25.235Z,6.67
2018-09-24T02:04:54.120Z,8.87
2018-09-24T02:07:23.015Z,3.20
2018-09-24T02:09:51.912Z,4.93
2018-09-24T02:12:20.767Z,6.23
2018-09-24T02:14:49.666Z,4.50
2018-09-24T02:17:21.138Z,5.93
2018-09-24T02:19:50.797Z,6.93
2018-09-24T02:22:27.756Z,5.53
2018-09-24T02:24:57.723Z,9.43
2018-09-24T02:27:26.741Z,4.90
2018-09-24T02:29:55.664Z,6.63
2018-09-24T02:32:24.578Z,7.93
2018-09-24T02:34:55.993Z,8.30
2018-09-24T02:37:24.851Z,9.30
2018-09-24T02:39:53.769Z,7.20
2018-09-24T02:42:22.711Z,4.47
2018-09-24T02:44:57.917Z,7.10
2018-09-24T02:47:32.407Z,4.30
2018-09-24T02:50:02.878Z,8.63
2018-09-24T02:52:31.945Z,5.13
2018-09-24T02:55:00.864Z,5.97
2018-09-24T02:57:29.808Z,4.70
2018-09-24T02:59:58.766Z,5.93
2018-09-24T03:02:27.658Z,4.03
2018-09-24T03:04:57.222Z,7.50
2018-09-24T03:07:26.132Z,3.07
2018-09-24T03:09:55.061Z,4.03
2018-09-24T03:12:23.929Z,6.27
2018-09-24T03:14:52.912Z,2.10
2018-09-24T03:17:21.953Z,5.53
2018-09-24T03:19:50.841Z,5.33
2018-09-24T03:22:21.011Z,7.33
2018-09-24T03:24:49.947Z,3.43
2018-09-24T03:27:18.945Z,8.13
2018-09-24T03:29:48.119Z,5.83
2018-09-24T03:32:16.986Z,10.10
2018-09-24T03:34:45.857Z,3.93
2018-09-24T03:37:14.802Z,5.80
2018-09-24T03:39:43.756Z,6.80
2018-09-24T03:42:12.665Z,3.63
2018-09-24T03:44:41.501Z,3.20
2018-09-24T03:47:10.480Z,3.57
2018-09-24T03:49:39.342Z,3.87
2018-09-24T03:52:08.291Z,3.17
2018-09-24T03:54:37.303Z,2.83
2018-09-24T03:57:06.251Z,3.73
2018-09-24T03:59:35.205Z,6.13
2018-09-24T04:02:04.076Z,5.53
2018-09-24T04:04:38.323Z,4.50
2018-09-24T04:07:12.390Z,6.27
2018-09-24T04:09:46.790Z,9.07
2018-09-24T04:12:20.783Z,4.60
2018-09-24T04:14:54.824Z,7.93
2018-09-24T04:17:29.007Z,4.03
2018-09-24T04:20:03.134Z,4.00
2018-09-24T04:22:37.201Z,4.20
2018-09-24T04:25:11.584Z,2.23
2018-09-24T04:27:45.653Z,3.97
2018-09-24T04:30:19.914Z,3.83
2018-09-24T04:32:54.100Z,4.67
2018-09-24T04:35:28.306Z,1.90
2018-09-24T04:38:02.522Z,2.73
2018-09-24T04:40:36.830Z,7.87
2018-09-24T04:43:10.967Z,7.37
2018-09-24T04:45:45.136Z,2.70
2018-09-24T04:48:19.261Z,3.17
2018-09-24T04:50:53.432Z,5.03
2018-09-24T04:53:27.546Z,2.37
2018-09-24T04:56:01.755Z,10.23
2018-09-24T04:58:36.070Z,2.13
2018-09-24T05:01:10.224Z,1.20
2018-09-24T05:03:44.340Z,3.77
2018-09-24T05:06:18.450Z,4.27
2018-09-24T05:08:52.596Z,6.53
2018-09-24T05:11:26.730Z,1.90
2018-09-24T05:14:01.030Z,2.23
2018-09-24T05:16:35.192Z,1.03
2018-09-24T05:19:09.234Z,3.00
2018-09-24T05:21:43.367Z,1.80
2018-09-24T05:24:17.426Z,5.57
2018-09-24T05:26:51.504Z,7.27
2018-09-24T05:29:25.603Z,5.33
2018-09-24T05:31:59.729Z,6.57
2018-09-24T05:34:33.960Z,6.17
2018-09-24T05:37:08.138Z,5.30
2018-09-24T05:39:42.089Z,3.50
2018-09-24T05:42:16.252Z,2.43
2018-09-24T05:44:50.365Z,7.57
2018-09-24T05:47:24.369Z,3.30
2018-09-24T05:49:58.518Z,3.60
2018-09-24T05:52:32.714Z,7.07
2018-09-24T05:55:06.794Z,3.70
2018-09-24T05:57:40.979Z,6.43
2018-09-24T06:00:15.098Z,4.57
2018-09-24T06:02:49.196Z,6.10
2018-09-24T06:05:23.296Z,3.47
2018-09-24T06:07:57.346Z,6.77
2018-09-24T06:10:31.503Z,8.03
2018-09-24T06:13:05.714Z,4.77
2018-09-24T06:15:39.945Z,5.50
2018-09-24T06:18:13.906Z,3.77
2018-09-24T06:20:48.114Z,6.80
2018-09-24T06:23:22.150Z,1.63
2018-09-24T06:25:56.361Z,3.90
2018-09-24T06:28:30.553Z,3.80
2018-09-24T06:31:05.175Z,4.43
2018-09-24T06:33:39.345Z,1.90
2018-09-24T06:36:13.523Z,7.37
2018-09-24T06:38:47.602Z,5.50
2018-09-24T06:41:21.915Z,3.23
2018-09-24T06:43:56.052Z,2.20
2018-09-24T06:46:30.089Z,5.53
2018-09-24T06:49:04.142Z,4.23
2018-09-24T06:51:38.118Z,1.73
2018-09-24T06:54:12.535Z,2.77
2018-09-24T06:56:46.777Z,4.30
2018-09-24T06:59:21.096Z,4.17
2018-09-24T07:01:55.137Z,4.77
2018-09-24T07:04:29.453Z,2.87
2018-09-24T07:07:03.646Z,5.80
2018-09-24T07:09:37.728Z,2.10
2018-09-24T07:12:11.966Z,4.50
2018-09-24T07:14:46.160Z,6.60
2018-09-24T07:17:20.357Z,5.03
2018-09-24T07:19:54.360Z,3.37
2018-09-24T07:22:28.502Z,6.20
2018-09-24T07:25:02.729Z,7.13
2018-09-24T07:27:36.837Z,5.90
2018-09-24T07:30:11.017Z,3.50
2018-09-24T07:32:45.194Z,6.23
2018-09-24T07:35:19.235Z,1.90
2018-09-24T07:37:53.441Z,3.83
2018-09-24T07:40:27.536Z,3.63
2018-09-24T07:43:01.789Z,3.90
2018-09-24T07:45:35.841Z,7.70
2018-09-24T07:48:10.059Z,8.13
2018-09-24T07:50:44.241Z,3.13
2018-09-24T07:53:18.344Z,6.07
2018-09-24T07:55:52.495Z,4.20
2018-09-24T07:58:26.734Z,5.33
2018-09-24T08:01:00.787Z,5.70
2018-09-24T08:03:34.933Z,5.90
2018-09-24T08:06:09.130Z,3.40
2018-09-24T08:08:43.243Z,2.47
2018-09-24T08:11:17.388Z,7.73
2018-09-24T08:13:51.626Z,6.37
2018-09-24T08:16:25.792Z,4.13
2018-09-24T08:18:59.894Z,6.00
2018-09-24T08:21:34.035Z,4.10
2018-09-24T08:24:08.245Z,5.83
2018-09-24T08:26:42.613Z,5.70
2018-09-24T08:29:16.686Z,2.17
2018-09-24T08:31:50.818Z,4.87
2018-09-24T08:34:25.035Z,3.13
2018-09-24T08:36:59.222Z,4.43
2018-09-24T08:39:33.313Z,4.23
2018-09-24T08:42:07.478Z,4.00
2018-09-24T08:44:41.511Z,2.50
2018-09-24T08:47:15.667Z,3.03
2018-09-24T08:49:49.850Z,6.03
2018-09-24T08:52:24.001Z,3.77
2018-09-24T08:54:58.293Z,3.03
2018-09-24T08:57:32.380Z,12.17
2018-09-24T09:00:06.573Z,2.83
2018-09-24T09:02:40.674Z,4.43
2018-09-24T09:05:14.892Z,4.93
2018-09-24T09:07:49.216Z,3.23
2018-09-24T09:10:23.292Z,5.97
2018-09-24T09:12:57.313Z,1.93
2018-09-24T09:15:31.439Z,4.30
2018-09-24T09:18:05.697Z,5.53
2018-09-24T09:20:39.915Z,4.43
2018-09-24T09:23:21.189Z,3.27
2018-09-24T09:25:55.433Z,4.03
2018-09-24T09:28:29.593Z,5.33
2018-09-24T09:31:03.899Z,4.23
2018-09-24T09:33:38.051Z,2.13
2018-09-24T09:36:12.124Z,5.17
2018-09-24T09:38:46.324Z,6.43
2018-09-24T09:41:20.397Z,2.73
2018-09-24T09:43:54.585Z,5.13
2018-09-24T09:46:28.735Z,4.30
2018-09-24T09:49:02.879Z,2.90
2018-09-24T09:51:37.120Z,3.33
2018-09-24T09:54:11.513Z,4.00
2018-09-24T09:56:45.802Z,2.13
2018-09-24T09:59:20.145Z,5.03
2018-09-24T10:01:54.130Z,3.20
2018-09-24T10:04:28.291Z,3.30
2018-09-24T10:07:02.335Z,1.30
2018-09-24T10:09:36.549Z,2.03
2018-09-24T10:12:10.526Z,1.90
2018-09-24T10:14:44.605Z,3.07
2018-09-24T10:17:18.796Z,6.17
2018-09-24T10:19:53.065Z,3.30
2018-09-24T10:22:27.111Z,3.33
2018-09-24T10:25:01.227Z,2.03
2018-09-24T10:27:35.388Z,2.43
2018-09-24T10:30:09.428Z,4.00
2018-09-24T10:32:43.717Z,7.50
2018-09-24T10:35:17.732Z,2.73
2018-09-24T10:37:51.966Z,2.10
2018-09-24T10:40:26.181Z,1.87
2018-09-24T10:43:00.428Z,2.07
2018-09-24T10:45:34.591Z,3.50
2018-09-24T10:48:08.676Z,6.00
2018-09-24T10:50:42.724Z,4.67
2018-09-24T10:53:16.825Z,2.97
2018-09-24T10:55:51.163Z,3.20
2018-09-24T10:58:25.256Z,6.17
2018-09-24T11:00:59.287Z,4.87
2018-09-24T11:03:33.361Z,2.73
2018-09-24T11:06:07.676Z,2.03
2018-09-24T11:08:41.772Z,6.40
2018-09-24T11:11:15.977Z,6.43
2018-09-24T11:13:49.951Z,6.73
2018-09-24T11:16:24.017Z,2.17
2018-09-24T11:18:58.056Z,1.53
2018-09-24T11:21:32.300Z,4.90
2018-09-24T11:24:06.562Z,5.37
2018-09-24T11:26:40.750Z,5.17
2018-09-24T11:29:14.768Z,2.33
2018-09-24T11:31:48.856Z,2.53
2018-09-24T11:34:22.928Z,5.87
2018-09-24T11:36:57.194Z,3.77
2018-09-24T11:39:31.347Z,2.03
2018-09-24T11:42:05.664Z,3.53
2018-09-24T11:44:39.840Z,3.40
2018-09-24T11:47:14.041Z,6.67
2018-09-24T11:49:48.270Z,2.00
2018-09-24T11:52:22.536Z,2.00
2018-09-24T11:54:56.605Z,1.77
2018-09-24T11:57:30.827Z,2.57
2018-09-24T12:00:04.986Z,2.43
2018-09-24T12:02:39.212Z,5.07
2018-09-24T12:05:13.572Z,1.03
2018-09-24T12:07:47.686Z,1.30
2018-09-24T12:10:21.969Z,1.17
2018-09-24T12:12:59.107Z,1.20
2018-09-24T12:15:36.194Z,4.00
2018-09-24T12:18:10.566Z,2.10
2018-09-24T12:20:47.314Z,1.73
2018-09-24T12:23:23.701Z,2.13
2018-09-24T12:25:59.848Z,6.07
2018-09-24T12:28:34.002Z,1.20
2018-09-24T12:31:10.068Z,2.37
2018-09-24T12:33:51.416Z,3.17
2018-09-24T12:36:26.569Z,2.57
2018-09-24T12:39:01.890Z,2.80
2018-09-24T12:41:47.994Z,0.97
2018-09-24T12:44:32.852Z,1.70
2018-09-24T12:47:07.572Z,6.70
2018-09-24T12:49:45.514Z,0.73
2018-09-24T12:52:22.607Z,3.03
2018-09-24T12:54:56.863Z,2.93
2018-09-24T12:57:31.702Z,2.93
2018-09-24T13:00:09.601Z,1.53
2018-09-24T13:02:58.049Z,3.63
2018-09-24T13:05:32.536Z,3.40
2018-09-24T13:08:07.086Z,3.57
2018-09-24T13:10:41.455Z,2.23
2018-09-24T13:13:15.879Z,3.30
2018-09-24T13:15:52.439Z,3.07
2018-09-24T13:18:38.669Z,3.93
2018-09-24T13:21:13.964Z,5.60
2018-09-24T13:23:48.418Z,2.40
2018-09-24T13:26:22.753Z,2.53
2018-09-24T13:28:57.362Z,2.37
2018-09-24T13:31:47.607Z,7.73
2018-09-24T13:34:26.409Z,2.13
2018-09-24T13:37:02.830Z,3.20
2018-09-24T13:39:47.646Z,1.50
2018-09-24T13:42:22.196Z,6.10
2018-09-24T13:44:56.843Z,2.23
2018-09-24T13:47:31.182Z,1.90
2018-09-24T13:50:11.764Z,1.00
2018-09-24T13:52:46.065Z,3.03
2018-09-24T13:55:20.496Z,1.53
2018-09-24T13:57:55.322Z,4.73
2018-09-24T14:00:29.882Z,3.70
2018-09-24T14:03:04.141Z,2.23
2018-09-24T14:05:38.447Z,2.10
2018-09-24T14:08:14.448Z,6.67
2018-09-24T14:10:50.309Z,1.23
2018-09-24T14:13:31.019Z,2.27
2018-09-24T14:16:07.607Z,2.73
2018-09-24T14:18:45.297Z,1.43
2018-09-24T14:21:22.878Z,3.83
2018-09-24T14:23:59.496Z,1.57
2018-09-24T14:26:34.842Z,3.83
2018-09-24T14:29:11.165Z,4.27
2018-09-24T14:31:47.478Z,1.77
2018-09-24T14:34:23.371Z,7.60
2018-09-24T14:36:58.847Z,1.87
2018-09-24T14:39:33.208Z,3.23
2018-09-24T14:42:07.569Z,4.27
2018-09-24T14:44:42.523Z,1.67
2018-09-24T14:47:16.823Z,4.73
2018-09-24T14:49:51.093Z,3.97
2018-09-24T14:52:25.368Z,2.20
2018-09-24T14:55:01.858Z,1.50
2018-09-24T14:57:36.281Z,2.43
2018-09-24T15:00:14.699Z,0.63
2018-09-24T15:02:49.124Z,1.00
2018-09-24T15:05:25.668Z,1.50
2018-09-24T15:08:00.583Z,2.67
2018-09-24T15:10:35.013Z,1.50
2018-09-24T15:13:09.437Z,1.83
2018-09-24T15:15:49.698Z,2.53
2018-09-24T15:18:25.754Z,1.70
2018-09-24T15:21:06.135Z,1.43
2018-09-24T15:23:41.683Z,2.93
2018-09-24T15:26:17.264Z,2.00
2018-09-24T15:28:56.859Z,2.07
2018-09-24T15:31:31.966Z,1.13
2018-09-24T15:34:06.426Z,3.13
2018-09-24T15:36:40.702Z,3.37
2018-09-24T15:39:18.658Z,1.57
2018-09-24T15:41:55.604Z,2.77
2018-09-24T15:44:34.895Z,1.53
2018-09-24T15:47:11.511Z,3.67
2018-09-24T15:49:49.132Z,1.10
2018-09-24T15:52:23.959Z,0.80
2018-09-24T15:55:01.374Z,4.53
2018-09-24T15:57:44.884Z,4.33
2018-09-24T16:00:20.901Z,3.90
2018-09-24T16:02:59.631Z,2.13
2018-09-24T16:05:42.239Z,3.50
2018-09-24T16:08:19.018Z,1.60
2018-09-24T16:11:05.410Z,1.00
2018-09-24T16:13:43.501Z,2.93
2018-09-24T16:16:24.314Z,1.37
2018-09-24T16:19:01.522Z,0.60
2018-09-24T16:21:40.861Z,0.93
2018-09-24T16:24:23.591Z,1.90
2018-09-24T16:27:06.031Z,4.00
2018-09-24T16:29:43.886Z,4.53
2018-09-24T16:32:22.912Z,1.00
2018-09-24T16:34:57.626Z,2.07
2018-09-24T16:37:32.155Z,10.37
2018-09-24T16:40:14.393Z,4.30
2018-09-24T16:42:54.056Z,2.57
2018-09-24T16:45:33.437Z,1.90
2018-09-24T16:48:07.821Z,2.37
2018-09-24T16:50:44.894Z,2.57
2018-09-24T16:53:31.835Z,1.97
2018-09-24T16:56:06.941Z,1.03
2018-09-24T16:58:44.970Z,1.87
2018-09-24T17:01:31.192Z,2.00
2018-09-24T17:04:06.490Z,4.23
2018-09-24T17:06:43.761Z,1.60
2018-09-24T17:09:20.697Z,2.07
2018-09-24T17:11:55.378Z,1.47
2018-09-24T17:14:31.211Z,3.17
2018-09-24T17:17:09.793Z,1.67
2018-09-24T17:19:44.218Z,2.90
2018-09-24T17:22:18.730Z,1.83
2018-09-24T17:24:53.152Z,3.47
2018-09-24T17:27:27.324Z,5.90
2018-09-24T17:30:01.864Z,3.40
2018-09-24T17:32:36.248Z,4.97
2018-09-24T17:35:10.698Z,2.47
2018-09-24T17:37:44.925Z,1.17
2018-09-24T17:40:19.144Z,1.13
2018-09-24T17:42:53.994Z,0.97
2018-09-24T17:45:28.152Z,1.10
2018-09-24T17:48:02.292Z,1.33
2018-09-24T17:50:36.454Z,2.37
2018-09-24T17:53:11.271Z,3.83
2018-09-24T17:55:45.422Z,2.87
2018-09-24T17:58:19.613Z,1.00
2018-09-24T18:00:53.953Z,1.10
2018-09-24T18:03:28.063Z,1.30
2018-09-24T18:06:02.806Z,0.80
2018-09-24T18:08:37.050Z,1.77
2018-09-24T18:11:11.597Z,1.17
2018-09-24T18:13:45.829Z,1.33
2018-09-24T18:16:19.936Z,2.43
2018-09-24T18:18:54.024Z,2.63
2018-09-24T18:21:28.123Z,1.43
2018-09-24T18:24:02.223Z,1.00
2018-09-24T18:26:37.516Z,1.40
2018-09-24T18:29:12.397Z,1.43
2018-09-24T18:31:47.870Z,1.83
2018-09-24T18:34:22.071Z,1.50
2018-09-24T18:36:57.429Z,0.87
2018-09-24T18:39:31.611Z,0.70
2018-09-24T18:42:06.358Z,2.40
2018-09-24T18:44:40.586Z,2.43
2018-09-24T18:47:14.802Z,3.77
2018-09-24T18:49:49.101Z,3.40
2018-09-24T18:52:23.964Z,1.23
2018-09-24T18:54:58.077Z,1.97
2018-09-24T18:57:32.445Z,1.70
2018-09-24T19:00:06.839Z,2.20
2018-09-24T19:02:40.979Z,3.43
2018-09-24T19:05:14.801Z,1.67
2018-09-24T19:07:48.933Z,1.97
2018-09-24T19:10:23.134Z,1.07
2018-09-24T19:12:57.225Z,3.30
2018-09-24T19:15:31.970Z,0.90
2018-09-24T19:18:06.307Z,2.33
2018-09-24T19:20:40.564Z,1.87
2018-09-24T19:23:14.703Z,2.50
2018-09-24T19:25:48.989Z,0.60
2018-09-24T19:28:23.087Z,1.60
2018-09-24T19:30:57.198Z,1.47
2018-09-24T19:33:31.390Z,3.07
2018-09-24T19:36:05.565Z,1.23
2018-09-24T19:38:40.274Z,1.03
2018-09-24T19:41:14.745Z,2.93
2018-09-24T19:43:49.038Z,2.80
2018-09-24T19:46:23.596Z,3.83
2018-09-24T19:48:59.900Z,2.17
2018-09-24T19:51:35.489Z,1.60
2018-09-24T19:54:09.898Z,3.03
2018-09-24T19:56:44.491Z,2.60
2018-09-24T19:59:21.315Z,5.40
2018-09-24T20:01:55.774Z,1.80
2018-09-24T20:04:30.257Z,2.73
2018-09-24T20:07:04.825Z,3.13
2018-09-24T20:09:38.822Z,1.77
2018-09-24T20:12:13.413Z,3.33
2018-09-24T20:14:54.048Z,1.07
2018-09-24T20:17:28.841Z,4.23
2018-09-24T20:20:03.723Z,6.10
2018-09-24T20:22:38.034Z,3.93
2018-09-24T20:25:12.453Z,1.27
2018-09-24T20:27:46.649Z,6.57
2018-09-24T20:30:21.303Z,3.17
2018-09-24T20:32:55.354Z,0.80
2018-09-24T20:35:29.522Z,2.17
2018-09-24T20:38:03.686Z,1.40
2018-09-24T20:40:38.326Z,1.07
2018-09-24T20:43:12.392Z,1.43
2018-09-24T20:45:46.451Z,2.03
2018-09-24T20:48:20.745Z,2.83
2018-09-24T20:50:54.809Z,7.43
2018-09-24T20:53:28.892Z,1.87
2018-09-24T20:56:02.954Z,3.30
2018-09-24T20:58:37.219Z,7.53
2018-09-24T21:01:11.771Z,3.47
2018-09-24T21:03:46.037Z,4.73
2018-09-24T21:06:20.085Z,1.70
2018-09-24T21:08:54.222Z,2.10
2018-09-24T21:11:28.451Z,4.57
2018-09-24T21:14:02.539Z,6.67
2018-09-24T21:16:36.584Z,2.03
2018-09-24T21:19:10.611Z,2.57
2018-09-24T21:21:44.777Z,2.17
2018-09-24T21:24:19.082Z,3.70
2018-09-24T21:26:53.399Z,3.30
2018-09-24T21:29:27.555Z,4.80
2018-09-24T21:32:01.796Z,4.23
2018-09-24T21:34:35.919Z,2.27
2018-09-24T21:37:10.076Z,2.97
2018-09-24T21:39:44.088Z,1.57
2018-09-24T21:42:18.183Z,4.13
2018-09-24T21:44:52.464Z,5.50
2018-09-24T21:47:26.639Z,5.23
2018-09-24T21:50:00.789Z,2.33
2018-09-24T21:52:34.951Z,3.90
2018-09-24T21:55:09.258Z,4.03
2018-09-24T21:57:43.410Z,4.00
2018-09-24T22:00:17.544Z,2.83
2018-09-24T22:02:51.700Z,5.47
2018-09-24T22:05:25.846Z,4.60
2018-09-24T22:07:59.939Z,3.23
2018-09-24T22:10:34.044Z,3.57
2018-09-24T22:13:08.132Z,5.17
2018-09-24T22:15:42.327Z,3.70
2018-09-24T22:18:16.573Z,4.87
2018-09-24T22:20:50.700Z,10.97
2018-09-24T22:23:24.936Z,5.40
2018-09-24T22:25:59.020Z,2.83
2018-09-24T22:28:33.191Z,3.80
2018-09-24T22:31:07.348Z,5.70
2018-09-24T22:33:41.401Z,2.30
2018-09-24T22:36:15.385Z,5.17
2018-09-24T22:38:49.578Z,4.67
2018-09-24T22:41:23.612Z,1.90
2018-09-24T22:43:57.808Z,1.53
2018-09-24T22:46:32.007Z,3.73
2018-09-24T22:49:06.146Z,3.67
2018-09-24T22:51:40.116Z,2.67
2018-09-24T22:54:14.368Z,6.70
2018-09-24T22:56:48.298Z,8.90
2018-09-24T22:59:22.387Z,3.20
2018-09-24T23:01:56.530Z,2.40
2018-09-24T23:04:30.679Z,2.63
2018-09-24T23:07:04.840Z,3.57
2018-09-24T23:09:38.884Z,1.80
2018-09-24T23:12:13.206Z,4.03
2018-09-24T23:14:47.285Z,4.23
2018-09-24T23:17:21.424Z,5.03
2018-09-24T23:19:55.683Z,2.00
2018-09-24T23:22:29.863Z,4.43
2018-09-24T23:25:04.189Z,2.03
2018-09-24T23:27:38.216Z,4.53
2018-09-24T23:30:12.410Z,2.23
2018-09-24T23:32:46.468Z,4.20
2018-09-24T23:35:20.648Z,5.57
2018-09-24T23:37:55.002Z,6.40
2018-09-24T23:40:29.276Z,4.27
2018-09-24T23:43:03.633Z,2.43
2018-09-24T23:45:37.664Z,6.17
2018-09-24T23:48:11.556Z,3.27
2018-09-24T23:50:45.619Z,7.53
2018-09-24T23:53:19.874Z,2.83
2018-09-24T23:55:53.892Z,8.33
2018-09-24T23:58:28.046Z,4.83
